createdAt,value
2023-05-09T00:00:42.869Z,8.63
2023-05-09T00:03:12.994Z,8.77
2023-05-09T00:05:42.678Z,9.10
2023-05-09T00:08:12.535Z,11.35
2023-05-09T00:10:42.199Z,8.50
2023-05-09T00:13:12.317Z,7.25
2023-05-09T00:15:44.506Z,9.35
2023-05-09T00:18:14.432Z,7.85
2023-05-09T00:20:44.591Z,12.07
2023-05-09T00:23:14.071Z,7.38
2023-05-09T00:25:43.588Z,10.05
2023-05-09T00:28:13.324Z,9.23
2023-05-09T00:30:45.400Z,7.80
2023-05-09T00:33:14.960Z,9.63
2023-05-09T00:35:44.498Z,9.43
2023-05-09T00:38:13.977Z,6.80
2023-05-09T00:40:43.674Z,8.73
2023-05-09T00:43:13.168Z,7.50
2023-05-09T00:45:45.729Z,9.43
2023-05-09T00:48:15.441Z,11.07
2023-05-09T00:50:45.831Z,7.82
2023-05-09T00:53:16.027Z,7.07
2023-05-09T00:55:45.704Z,9.13
2023-05-09T00:58:15.753Z,8.00
2023-05-09T01:00:48.167Z,9.00
2023-05-09T01:03:18.060Z,7.72
2023-05-09T01:05:57.979Z,10.27
2023-05-09T01:08:38.409Z,10.50
2023-05-09T01:11:14.075Z,8.85
2023-05-09T01:13:52.477Z,10.00
2023-05-09T01:16:33.931Z,7.93
2023-05-09T01:19:13.171Z,8.17
2023-05-09T01:21:46.793Z,8.87
2023-05-09T01:24:28.462Z,8.83
2023-05-09T01:27:20.298Z,8.27
2023-05-09T01:29:58.722Z,7.70
2023-05-09T01:32:30.186Z,9.90
2023-05-09T01:35:04.616Z,9.63
2023-05-09T01:37:36.349Z,8.87
2023-05-09T01:40:10.548Z,9.03
2023-05-09T01:42:45.357Z,8.47
2023-05-09T01:45:19.105Z,8.90
2023-05-09T01:47:49.961Z,9.13
2023-05-09T01:50:21.488Z,9.97
2023-05-09T01:52:53.626Z,10.43
2023-05-09T01:55:25.726Z,8.90
2023-05-09T01:57:56.800Z,11.02
2023-05-09T02:00:29.918Z,10.13
2023-05-09T02:03:00.711Z,9.70
2023-05-09T02:05:33.148Z,12.33
2023-05-09T02:08:04.033Z,9.60
2023-05-09T02:10:36.659Z,9.70
2023-05-09T02:13:07.750Z,8.73
2023-05-09T02:15:40.221Z,10.20
2023-05-09T02:18:09.698Z,12.32
2023-05-09T02:20:39.208Z,10.23
2023-05-09T02:23:09.074Z,10.83
2023-05-09T02:25:39.185Z,9.43
2023-05-09T02:28:10.130Z,10.27
2023-05-09T02:30:46.083Z,9.87
2023-05-09T02:33:16.793Z,11.07
2023-05-09T02:35:48.422Z,10.37
2023-05-09T02:38:19.316Z,11.30
2023-05-09T02:40:52.299Z,10.30
2023-05-09T02:43:22.216Z,10.57
2023-05-09T02:45:54.308Z,9.53
2023-05-09T02:48:23.808Z,12.23
2023-05-09T02:50:53.246Z,12.40
2023-05-09T02:53:22.751Z,11.97
2023-05-09T02:55:53.999Z,9.70
2023-05-09T02:58:23.488Z,13.13
2023-05-09T03:00:55.495Z,14.17
2023-05-09T03:03:25.640Z,9.73
2023-05-09T03:05:55.122Z,10.33
2023-05-09T03:08:24.859Z,11.17
2023-05-09T03:10:54.344Z,11.57
2023-05-09T03:13:24.480Z,9.10
2023-05-09T03:15:56.609Z,9.70
2023-05-09T03:18:26.577Z,11.82
2023-05-09T03:20:56.027Z,11.67
2023-05-09T03:23:25.619Z,12.23
2023-05-09T03:25:55.343Z,10.73
2023-05-09T03:28:24.862Z,10.67
2023-05-09T03:30:57.590Z,12.43
2023-05-09T03:33:29.900Z,9.10
2023-05-09T03:36:00.393Z,9.70
2023-05-09T03:38:30.061Z,9.97
2023-05-09T03:40:59.532Z,11.07
2023-05-09T03:43:29.194Z,10.97
2023-05-09T03:46:01.717Z,12.53
2023-05-09T03:48:31.258Z,10.73
2023-05-09T03:51:01.026Z,10.73
2023-05-09T03:53:32.168Z,12.07
2023-05-09T03:56:01.852Z,10.07
2023-05-09T03:58:34.224Z,15.18
2023-05-09T04:01:06.561Z,12.03
2023-05-09T04:03:37.850Z,11.87
2023-05-09T04:06:08.137Z,11.03
2023-05-09T04:08:41.148Z,11.70
2023-05-09T04:11:10.626Z,11.63
2023-05-09T04:13:42.249Z,9.60
2023-05-09T04:16:31.331Z,12.87
2023-05-09T04:19:01.641Z,12.40
2023-05-09T04:21:32.016Z,12.97
2023-05-09T04:24:03.533Z,9.50
2023-05-09T04:26:41.732Z,13.90
2023-05-09T04:29:14.711Z,11.87
2023-05-09T04:31:49.172Z,12.60
2023-05-09T04:36:48.430Z,12.83
2023-05-09T04:39:17.855Z,12.43
2023-05-09T04:41:55.791Z,12.87
2023-05-09T04:44:25.294Z,12.20
2023-05-09T04:46:58.228Z,11.37
2023-05-09T04:49:27.717Z,12.17
2023-05-09T04:51:57.172Z,12.90
2023-05-09T04:54:27.076Z,12.30
2023-05-09T04:57:06.406Z,11.97
2023-05-09T04:59:43.858Z,11.67
2023-05-09T05:02:18.711Z,11.15
2023-05-09T05:04:49.363Z,11.70
2023-05-09T05:07:18.838Z,12.77
2023-05-09T05:09:48.529Z,11.83
2023-05-09T05:12:18.135Z,12.10
2023-05-09T05:14:48.392Z,15.93
2023-05-09T05:17:24.874Z,12.30
2023-05-09T05:19:55.054Z,12.67
2023-05-09T05:22:24.819Z,13.77
2023-05-09T05:24:54.384Z,11.43
2023-05-09T05:27:23.860Z,12.63
2023-05-09T05:29:53.570Z,11.77
2023-05-09T05:32:26.135Z,11.03
2023-05-09T05:34:55.693Z,10.95
2023-05-09T05:37:25.297Z,14.93
2023-05-09T05:39:55.021Z,11.50
2023-05-09T05:42:24.805Z,11.90
2023-05-09T05:44:54.276Z,11.20
2023-05-09T05:47:26.317Z,13.00
2023-05-09T05:49:56.299Z,11.75
2023-05-09T05:52:26.485Z,12.00
2023-05-09T05:54:57.119Z,12.50
2023-05-09T05:57:27.073Z,14.33
2023-05-09T05:59:56.900Z,13.23
2023-05-09T06:02:29.336Z,12.83
2023-05-09T06:04:58.879Z,11.98
2023-05-09T06:07:28.636Z,11.43
2023-05-09T06:09:58.063Z,12.63
2023-05-09T06:12:28.130Z,12.43
2023-05-09T06:14:57.657Z,12.23
2023-05-09T06:17:29.862Z,13.57
2023-05-09T06:19:59.339Z,12.25
2023-05-09T06:22:29.174Z,10.97
2023-05-09T06:24:58.710Z,12.10
2023-05-09T06:27:28.368Z,11.10
2023-05-09T06:29:57.753Z,10.27
2023-05-09T06:32:29.753Z,11.13
2023-05-09T06:34:59.243Z,12.88
2023-05-09T06:37:28.662Z,12.80
2023-05-09T06:39:58.091Z,11.30
2023-05-09T06:42:28.704Z,11.60
2023-05-09T06:44:58.246Z,12.27
2023-05-09T06:47:30.279Z,11.97
2023-05-09T06:49:59.921Z,10.73
2023-05-09T06:52:29.391Z,13.13
2023-05-09T06:54:58.776Z,10.13
2023-05-09T06:57:28.332Z,13.80
2023-05-09T06:59:57.876Z,11.60
2023-05-09T07:02:29.926Z,12.97
2023-05-09T07:04:59.430Z,11.32
2023-05-09T07:07:29.013Z,13.27
2023-05-09T07:10:10.519Z,12.00
2023-05-09T07:12:41.868Z,11.10
2023-05-09T07:15:12.979Z,12.17
2023-05-09T07:17:45.358Z,11.73
2023-05-09T07:20:15.070Z,11.77
2023-05-09T07:22:44.597Z,14.50
2023-05-09T07:25:14.199Z,11.10
2023-05-09T07:27:43.738Z,11.27
2023-05-09T07:30:14.083Z,12.43
2023-05-09T07:32:46.791Z,11.23
2023-05-09T07:35:16.426Z,12.13
2023-05-09T07:37:46.079Z,10.68
2023-05-09T07:40:16.630Z,10.27
2023-05-09T07:42:50.016Z,11.43
2023-05-09T07:45:22.098Z,12.97
2023-05-09T07:47:55.838Z,11.93
2023-05-09T07:50:25.518Z,11.38
2023-05-09T07:52:55.803Z,11.27
2023-05-09T07:55:25.285Z,11.35
2023-05-09T07:57:54.750Z,10.85
2023-05-09T08:00:24.726Z,11.23
2023-05-09T08:02:56.923Z,11.23
2023-05-09T08:05:26.475Z,11.27
2023-05-09T08:07:55.940Z,12.65
2023-05-09T08:10:26.860Z,10.77
2023-05-09T08:12:56.378Z,9.60
2023-05-09T08:15:26.068Z,11.10
2023-05-09T08:17:58.126Z,11.38
2023-05-09T08:20:27.648Z,9.38
2023-05-09T08:22:57.148Z,12.20
2023-05-09T08:25:26.671Z,8.85
2023-05-09T08:27:56.095Z,11.48
2023-05-09T08:30:25.615Z,10.52
2023-05-09T08:32:55.130Z,9.98
2023-05-09T08:35:27.509Z,10.80
2023-05-09T08:37:56.926Z,10.00
2023-05-09T08:40:26.657Z,10.32
2023-05-09T08:42:56.477Z,10.38
2023-05-09T08:45:29.482Z,10.15
2023-05-09T08:47:59.827Z,10.32
2023-05-09T08:50:32.280Z,12.82
2023-05-09T08:53:02.016Z,10.52
2023-05-09T08:55:31.872Z,9.57
2023-05-09T08:58:02.264Z,11.30
2023-05-09T09:08:05.493Z,12.27
2023-05-09T09:10:35.873Z,10.18
2023-05-09T09:13:07.406Z,12.27
2023-05-09T09:15:38.766Z,10.88
2023-05-09T09:18:10.856Z,9.27
2023-05-09T09:20:44.346Z,10.30
2023-05-09T09:23:20.754Z,10.43
2023-05-09T09:25:50.624Z,11.80
2023-05-09T09:28:20.586Z,11.18
2023-05-09T09:30:50.924Z,11.10
2023-05-09T09:33:25.585Z,10.82
2023-05-09T09:35:57.024Z,12.18
2023-05-09T09:38:31.240Z,8.65
2023-05-09T09:41:01.877Z,11.88
2023-05-09T09:43:31.961Z,11.10
2023-05-09T09:46:04.178Z,10.23
2023-05-09T09:48:35.007Z,9.23
2023-05-09T09:51:10.725Z,9.65
2023-05-09T09:53:46.971Z,9.82
2023-05-09T09:56:16.583Z,10.13
2023-05-09T09:58:46.038Z,9.45
2023-05-09T10:01:16.919Z,9.80
2023-05-09T10:03:48.083Z,9.63
2023-05-09T10:06:19.324Z,13.38
2023-05-09T10:08:51.330Z,10.20
2023-05-09T10:11:21.517Z,9.75
2023-05-09T10:13:51.108Z,11.48
2023-05-09T10:16:28.595Z,9.73
2023-05-09T10:19:06.255Z,9.55
2023-05-09T10:21:36.798Z,10.70
2023-05-09T10:24:11.676Z,11.03
2023-05-09T10:26:47.296Z,9.25
2023-05-09T10:29:23.010Z,10.07
2023-05-09T10:31:56.868Z,9.98
2023-05-09T10:34:29.000Z,11.75
2023-05-09T10:37:00.565Z,10.55
2023-05-09T10:39:33.692Z,10.63
2023-05-09T10:42:03.892Z,11.00
2023-05-09T10:44:33.510Z,11.02
2023-05-09T10:47:04.542Z,10.10
2023-05-09T10:49:36.890Z,9.55
2023-05-09T10:55:05.566Z,11.15
2023-05-09T10:57:35.269Z,11.95
2023-05-09T11:00:06.183Z,9.10
2023-05-09T11:02:35.814Z,11.35
2023-05-09T11:05:19.195Z,9.00
2023-05-09T11:07:48.922Z,9.85
2023-05-09T11:10:22.744Z,9.55
2023-05-09T11:12:59.244Z,9.32
2023-05-09T11:15:30.049Z,10.65
2023-05-09T11:18:09.846Z,11.95
2023-05-09T11:20:45.931Z,9.00
2023-05-09T11:23:18.725Z,10.90
2023-05-09T11:25:52.338Z,9.77
2023-05-09T11:28:30.975Z,11.73
2023-05-09T11:31:12.275Z,8.73
2023-05-09T11:33:43.259Z,11.35
2023-05-09T11:36:25.438Z,12.18
2023-05-09T11:39:07.778Z,11.85
2023-05-09T11:41:52.596Z,9.65
2023-05-09T11:44:31.875Z,10.15
2023-05-09T11:49:45.603Z,12.45
2023-05-09T11:54:56.457Z,9.77
2023-05-09T11:57:28.543Z,10.73
2023-05-09T11:59:58.205Z,12.35
2023-05-09T12:02:28.326Z,10.30
2023-05-09T12:04:57.863Z,10.88
2023-05-09T12:07:27.760Z,10.88
2023-05-09T12:09:57.237Z,13.02
2023-05-09T12:12:29.381Z,11.15
2023-05-09T12:14:58.832Z,9.45
2023-05-09T12:17:29.288Z,9.55
2023-05-09T12:20:05.222Z,12.38
2023-05-09T12:22:37.589Z,10.80
2023-05-09T12:25:11.585Z,10.60
2023-05-09T12:27:44.554Z,10.75
2023-05-09T12:30:16.250Z,12.15
2023-05-09T12:32:46.773Z,10.85
2023-05-09T12:35:16.539Z,10.15
2023-05-09T12:37:58.864Z,9.95
2023-05-09T12:40:28.351Z,10.95
2023-05-09T12:43:03.081Z,10.95
2023-05-09T12:45:34.856Z,11.07
2023-05-09T12:48:06.243Z,10.32
2023-05-09T12:50:38.763Z,11.95
2023-05-09T12:53:08.769Z,10.95
2023-05-09T12:55:44.038Z,12.85
2023-05-09T12:58:17.647Z,14.70
2023-05-09T13:00:48.188Z,10.68
2023-05-09T13:03:31.331Z,10.95
2023-05-09T13:06:02.597Z,11.65
2023-05-09T13:08:32.426Z,11.35
2023-05-09T13:11:14.966Z,11.68
2023-05-09T13:13:47.938Z,11.45
2023-05-09T13:16:18.000Z,11.35
2023-05-09T13:18:47.544Z,12.70
2023-05-09T13:21:17.082Z,11.43
2023-05-09T13:23:46.580Z,11.88
2023-05-09T13:26:16.028Z,10.85
2023-05-09T13:28:48.021Z,12.43
2023-05-09T13:31:17.829Z,12.10
2023-05-09T13:33:49.930Z,11.20
2023-05-09T13:36:21.378Z,12.38
2023-05-09T13:38:51.137Z,10.57
2023-05-09T13:41:24.111Z,12.15
2023-05-09T13:43:56.130Z,11.43
2023-05-09T13:46:25.647Z,11.68
2023-05-09T13:48:55.623Z,12.95
2023-05-09T13:51:25.208Z,13.02
2023-05-09T13:53:54.716Z,12.07
2023-05-09T13:56:24.360Z,12.27
2023-05-09T13:58:56.348Z,13.48
2023-05-09T14:01:26.007Z,14.30
2023-05-09T14:03:55.580Z,12.00
2023-05-09T14:06:25.049Z,12.50
2023-05-09T14:08:54.725Z,11.75
2023-05-09T14:11:25.959Z,13.88
2023-05-09T14:13:57.958Z,10.40
2023-05-09T14:16:27.501Z,15.07
2023-05-09T14:18:57.010Z,12.10
2023-05-09T14:21:27.312Z,12.15
2023-05-09T14:23:57.193Z,12.45
2023-05-09T14:26:26.762Z,13.57
2023-05-09T14:28:59.142Z,14.65
2023-05-09T14:31:29.183Z,15.02
2023-05-09T14:34:00.309Z,13.32
2023-05-09T14:36:32.376Z,12.75
2023-05-09T14:39:02.032Z,11.57
2023-05-09T14:41:31.944Z,15.43
2023-05-09T14:44:04.549Z,10.50
2023-05-09T14:46:34.082Z,11.15
2023-05-09T14:49:04.412Z,11.50
2023-05-09T14:51:34.241Z,12.57
2023-05-09T14:54:04.697Z,12.10
2023-05-09T14:56:34.216Z,10.52
2023-05-09T14:59:06.264Z,8.88
2023-05-09T15:01:35.787Z,11.90
2023-05-09T15:04:05.361Z,13.45
2023-05-09T15:06:34.898Z,11.70
2023-05-09T15:09:04.555Z,10.50
2023-05-09T15:11:46.713Z,11.23
2023-05-09T15:14:20.802Z,11.98
2023-05-09T15:16:51.777Z,13.70
2023-05-09T15:19:22.548Z,11.50
2023-05-09T15:21:52.276Z,10.43
2023-05-09T15:24:21.887Z,10.32
2023-05-09T15:26:51.388Z,12.43
2023-05-09T15:29:24.293Z,11.52
2023-05-09T15:31:53.701Z,10.45
2023-05-09T15:34:23.404Z,11.13
2023-05-09T15:36:52.836Z,13.70
2023-05-09T15:39:24.983Z,10.70
2023-05-09T15:41:54.442Z,12.65
2023-05-09T15:44:26.897Z,12.48
2023-05-09T15:46:57.143Z,13.25
2023-05-09T15:49:26.862Z,10.75
2023-05-09T15:51:56.296Z,12.02
2023-05-09T15:54:26.505Z,10.70
2023-05-09T15:56:56.105Z,11.40
2023-05-09T15:59:28.351Z,12.05
2023-05-09T16:01:58.115Z,11.35
2023-05-09T16:04:27.789Z,11.13
2023-05-09T16:06:58.085Z,11.18
2023-05-09T16:09:27.944Z,13.50
2023-05-09T16:11:57.388Z,13.32
2023-05-09T16:14:29.457Z,10.65
2023-05-09T16:16:59.121Z,9.57
2023-05-09T16:19:28.780Z,9.73
2023-05-09T16:21:58.219Z,12.93
2023-05-09T16:24:27.759Z,10.45
2023-05-09T16:26:57.215Z,11.60
2023-05-09T16:29:29.604Z,9.25
2023-05-09T16:31:59.104Z,10.18
2023-05-09T16:34:28.637Z,8.07
2023-05-09T16:36:58.065Z,9.82
2023-05-09T16:39:28.100Z,10.95
2023-05-09T16:41:58.108Z,11.15
2023-05-09T16:44:30.387Z,8.45
2023-05-09T16:46:59.838Z,11.85
2023-05-09T16:49:29.332Z,14.35
2023-05-09T16:51:59.479Z,10.52
2023-05-09T16:54:28.959Z,9.13
2023-05-09T16:56:58.462Z,9.65
2023-05-09T16:59:30.472Z,10.13
2023-05-09T17:02:00.449Z,14.52
2023-05-09T17:04:30.168Z,11.18
2023-05-09T17:06:59.634Z,9.60
2023-05-09T17:09:29.084Z,9.20
2023-05-09T17:11:59.111Z,10.45
2023-05-09T17:14:31.248Z,7.95
2023-05-09T17:17:00.794Z,8.93
2023-05-09T17:19:30.609Z,8.15
2023-05-09T17:22:04.318Z,8.77
2023-05-09T17:24:33.838Z,8.48
2023-05-09T17:27:03.751Z,10.02
2023-05-09T17:29:36.448Z,11.68
2023-05-09T17:32:05.994Z,7.22
2023-05-09T17:34:35.792Z,9.27
2023-05-09T17:37:05.997Z,9.73
2023-05-09T17:39:35.589Z,9.20
2023-05-09T17:42:05.067Z,9.35
2023-05-09T17:44:37.704Z,10.77
2023-05-09T17:49:36.567Z,9.43
2023-05-09T17:52:05.971Z,9.15
2023-05-09T17:54:36.464Z,9.15
2023-05-09T17:57:06.080Z,8.73
2023-05-09T17:59:40.580Z,8.82
2023-05-09T18:02:10.066Z,8.88
2023-05-09T18:04:39.657Z,8.23
2023-05-09T18:07:11.072Z,13.55
2023-05-09T18:09:40.567Z,11.52
2023-05-09T18:12:10.337Z,13.13
2023-05-09T18:14:42.384Z,12.63
2023-05-09T18:17:11.916Z,11.50
2023-05-09T18:19:42.344Z,10.73
2023-05-09T18:22:12.034Z,10.60
2023-05-09T18:24:41.471Z,8.88
2023-05-09T18:27:11.761Z,9.07
2023-05-09T18:29:46.811Z,9.13
2023-05-09T18:32:17.756Z,8.13
2023-05-09T18:34:48.646Z,7.53
2023-05-09T18:37:19.143Z,9.68
2023-05-09T18:39:48.977Z,10.32
2023-05-09T18:42:18.435Z,7.97
2023-05-09T18:44:50.720Z,7.63
2023-05-09T18:47:20.170Z,7.65
2023-05-09T18:49:49.792Z,9.25
2023-05-09T18:52:20.618Z,12.48
2023-05-09T18:54:50.009Z,7.85
2023-05-09T18:57:20.008Z,11.02
2023-05-09T18:59:53.109Z,8.68
2023-05-09T19:02:23.658Z,8.98
2023-05-09T19:04:53.339Z,9.00
2023-05-09T19:07:22.832Z,8.95
2023-05-09T19:09:52.615Z,9.70
2023-05-09T19:12:22.144Z,7.72
2023-05-09T19:14:54.147Z,9.48
2023-05-09T19:17:23.591Z,12.27
2023-05-09T19:19:53.063Z,8.68
2023-05-09T19:22:22.556Z,8.95
2023-05-09T19:24:52.467Z,6.50
2023-05-09T19:27:21.910Z,10.43
2023-05-09T19:29:54.214Z,5.03
2023-05-09T19:32:23.802Z,7.93
2023-05-09T19:34:53.267Z,7.63
2023-05-09T19:37:22.705Z,6.47
2023-05-09T19:39:52.160Z,8.25
2023-05-09T19:42:21.625Z,9.70
2023-05-09T19:44:53.763Z,8.27
2023-05-09T19:47:23.262Z,7.10
2023-05-09T19:49:53.655Z,6.95
2023-05-09T19:52:23.417Z,5.72
2023-05-09T19:54:53.086Z,8.48
2023-05-09T19:57:22.982Z,8.43
2023-05-09T19:59:55.772Z,7.82
2023-05-09T20:02:25.337Z,7.32
2023-05-09T20:04:54.936Z,8.32
2023-05-09T20:07:24.394Z,7.85
2023-05-09T20:09:54.202Z,7.03
2023-05-09T20:12:23.667Z,10.07
2023-05-09T20:14:55.820Z,7.00
2023-05-09T20:17:25.541Z,6.65
2023-05-09T20:19:55.194Z,7.80
2023-05-09T20:22:24.632Z,11.00
2023-05-09T20:24:54.241Z,9.73
2023-05-09T20:27:23.869Z,6.90
2023-05-09T20:29:56.635Z,7.22
2023-05-09T20:32:26.489Z,9.00
2023-05-09T20:34:56.356Z,9.30
2023-05-09T20:37:25.872Z,7.50
2023-05-09T20:39:55.358Z,7.05
2023-05-09T20:42:25.925Z,6.53
2023-05-09T20:44:58.033Z,9.55
2023-05-09T20:47:27.767Z,6.38
2023-05-09T20:49:58.284Z,6.00
2023-05-09T20:52:28.307Z,7.47
2023-05-09T20:54:59.235Z,8.32
2023-05-09T20:57:28.807Z,6.47
2023-05-09T21:00:00.874Z,5.30
2023-05-09T21:02:31.284Z,7.55
2023-05-09T21:05:00.751Z,7.47
2023-05-09T21:07:32.037Z,8.43
2023-05-09T21:10:01.533Z,7.55
2023-05-09T21:12:32.859Z,8.30
2023-05-09T21:15:05.441Z,6.88
2023-05-09T21:20:04.216Z,6.53
2023-05-09T21:22:33.648Z,7.25
2023-05-09T21:25:03.108Z,8.80
2023-05-09T21:27:33.123Z,6.50
2023-05-09T21:30:05.165Z,6.80
2023-05-09T21:32:34.618Z,8.43
2023-05-09T21:35:04.716Z,8.85
2023-05-09T21:37:35.229Z,6.20
2023-05-09T21:40:05.918Z,8.15
2023-05-09T21:42:36.012Z,7.68
2023-05-09T21:45:09.319Z,9.90
2023-05-09T21:47:39.714Z,7.65
2023-05-09T21:50:09.869Z,8.30
2023-05-09T21:52:39.283Z,7.28
2023-05-09T21:55:08.925Z,5.88
2023-05-09T21:57:38.537Z,7.40
2023-05-09T22:00:15.322Z,5.82
2023-05-09T22:02:45.345Z,9.50
2023-05-09T22:05:14.805Z,9.55
2023-05-09T22:07:44.214Z,10.20
2023-05-09T22:10:14.102Z,7.07
2023-05-09T22:12:43.677Z,9.30
2023-05-09T22:15:15.871Z,8.52
2023-05-09T22:17:45.490Z,8.35
2023-05-09T22:20:15.840Z,9.80
2023-05-09T22:22:45.423Z,8.40
2023-05-09T22:25:14.841Z,6.95
2023-05-09T22:27:44.569Z,7.13
2023-05-09T22:30:17.129Z,9.38
2023-05-09T22:32:46.763Z,8.15
2023-05-09T22:35:16.282Z,7.45
2023-05-09T22:37:45.894Z,9.25
2023-05-09T22:40:16.809Z,8.38
2023-05-09T22:42:46.439Z,8.93
2023-05-09T22:45:18.452Z,9.43
2023-05-09T22:47:48.655Z,8.68
2023-05-09T22:50:18.355Z,9.10
2023-05-09T22:52:48.189Z,9.75
2023-05-09T22:55:18.556Z,6.82
2023-05-09T22:57:48.009Z,8.45
2023-05-09T23:00:20.618Z,7.85
2023-05-09T23:05:19.996Z,10.02
2023-05-09T23:07:49.496Z,8.13
2023-05-09T23:10:19.329Z,6.90
2023-05-09T23:12:48.830Z,10.93
2023-05-09T23:15:21.204Z,9.13
2023-05-09T23:17:50.677Z,9.85
2023-05-09T23:20:20.211Z,8.98
2023-05-09T23:22:49.602Z,9.38
2023-05-09T23:25:19.067Z,7.72
2023-05-09T23:27:48.524Z,10.80
2023-05-09T23:30:18.266Z,10.68
2023-05-09T23:32:50.549Z,9.48
2023-05-09T23:35:21.251Z,8.23
2023-05-09T23:37:50.736Z,9.82
2023-05-09T23:40:20.483Z,7.65
2023-05-09T23:42:50.007Z,6.63
2023-05-09T23:45:19.476Z,8.15
2023-05-09T23:47:51.552Z,7.75
2023-05-09T23:50:21.253Z,7.60
2023-05-09T23:52:51.573Z,8.98
2023-05-09T23:55:21.182Z,6.35
2023-05-09T23:57:50.692Z,8.45
